Etusivu
METAR-TAF:

METAR-TAF

Lentoasemat :

Agri-Science Center

Chillicothe, Missouri, Yhdysvallat

Leveyspiiri: 39-49N, Pituuspiiri: 093-35W, korkeus merenpinnasta: 234 m

Tämänhetkinen sää

Tämä raportti tehtiin 38 minuuttia sitten, kello 18.52 UTC
Tuuli 6 kn etelästä
Lämpötila 6°C
Kosteus 56%
Ilmanpaine 1030 hPa

METAR: KCDJ 251852Z AUTO 18006KT 06/M02 A3043 RMK AO1 SLP316 T00561022

Aika: 13:30 (19:30 UTC)


TAF: puuttuu

Säähavainnot ja -ennusteet yli 4000 lentoasemalta (METAR- ja TAF-raportit).

Käytössä olevat sääasemat on merkitty karttaan keltaisilla ja punaisilla pisteillä.

Aseta hiiri pisteen päälle nähdäksesi sääaseman nimen.

Klikkaa sitten nähdäksesi säähavainnot ja -ennusteet.

Kartan vaihtaminen: klikkaa mustalla rastilla varustettuja vihreitä pisteitä, niin voit zoomata sisään; viivalla varustettua vihreää pistettä, niin voit zoomata ulos tai vihreitä nuolia, niin pääset viereisille kartoille.


METAR-TAF: